sensor_id;sensor_type;location;lat;lon;timestamp;pressure;altitude;pressure_sealevel;temperature;humidity
34205;BME280;20471;49.680;20.074;2023-01-31T00:00:08;96343.92;;;1.62;74.10
34205;BME280;20471;49.680;20.074;2023-01-31T00:02:57;96341.63;;;1.62;73.87
34205;BME280;20471;49.680;20.074;2023-01-31T00:05:25;96336.00;;;1.63;73.92
34205;BME280;20471;49.680;20.074;2023-01-31T00:07:53;96334.56;;;1.65;73.91
34205;BME280;20471;49.680;20.074;2023-01-31T00:10:21;96341.93;;;1.68;73.84
34205;BME280;20471;49.680;20.074;2023-01-31T00:12:49;96346.52;;;1.69;73.90
34205;BME280;20471;49.680;20.074;2023-01-31T00:15:17;96352.08;;;1.65;74.18
34205;BME280;20471;49.680;20.074;2023-01-31T00:17:45;96363.11;;;1.60;74.59
34205;BME280;20471;49.680;20.074;2023-01-31T00:20:13;96368.42;;;1.56;74.96
34205;BME280;20471;49.680;20.074;2023-01-31T00:22:41;96372.68;;;1.52;75.23
34205;BME280;20471;49.680;20.074;2023-01-31T00:25:09;96377.53;;;1.48;75.47
34205;BME280;20471;49.680;20.074;2023-01-31T00:27:40;96380.41;;;1.43;75.68
34205;BME280;20471;49.680;20.074;2023-01-31T00:30:09;96377.61;;;1.40;75.76
34205;BME280;20471;49.680;20.074;2023-01-31T00:32:37;96381.60;;;1.39;75.91
34205;BME280;20471;49.680;20.074;2023-01-31T00:35:05;96382.24;;;1.37;76.05
34205;BME280;20471;49.680;20.074;2023-01-31T00:37:34;96388.46;;;1.35;76.28
34205;BME280;20471;49.680;20.074;2023-01-31T00:40:02;96397.05;;;1.31;76.39
34205;BME280;20471;49.680;20.074;2023-01-31T00:42:30;96399.41;;;1.28;76.38
34205;BME280;20471;49.680;20.074;2023-01-31T00:44:58;96399.02;;;1.27;76.45
34205;BME280;20471;49.680;20.074;2023-01-31T00:47:26;96399.86;;;1.24;76.55
34205;BME280;20471;49.680;20.074;2023-01-31T00:49:54;96402.38;;;1.21;76.64
34205;BME280;20471;49.680;20.074;2023-01-31T00:52:22;96401.38;;;1.19;76.67
34205;BME280;20471;49.680;20.074;2023-01-31T00:54:50;96399.95;;;1.19;76.68
34205;BME280;20471;49.680;20.074;2023-01-31T00:57:19;96408.89;;;1.18;76.57
34205;BME280;20471;49.680;20.074;2023-01-31T00:59:47;96416.86;;;1.20;76.47
34205;BME280;20471;49.680;20.074;2023-01-31T01:02:15;96414.70;;;1.20;76.33
34205;BME280;20471;49.680;20.074;2023-01-31T01:04:43;96415.96;;;1.18;76.26
34205;BME280;20471;49.680;20.074;2023-01-31T01:07:11;96412.13;;;1.16;76.28
34205;BME280;20471;49.680;20.074;2023-01-31T01:09:39;96408.30;;;1.17;76.44
34205;BME280;20471;49.680;20.074;2023-01-31T01:12:07;96414.00;;;1.19;76.44
34205;BME280;20471;49.680;20.074;2023-01-31T01:14:36;96415.80;;;1.18;76.46
34205;BME280;20471;49.680;20.074;2023-01-31T01:17:04;96412.44;;;1.20;76.46
34205;BME280;20471;49.680;20.074;2023-01-31T01:19:32;96412.65;;;1.19;76.50
34205;BME280;20471;49.680;20.074;2023-01-31T01:22:00;96413.27;;;1.19;76.66
34205;BME280;20471;49.680;20.074;2023-01-31T01:24:30;96421.12;;;1.20;76.61
34205;BME280;20471;49.680;20.074;2023-01-31T01:26:58;96428.28;;;1.23;76.71
34205;BME280;20471;49.680;20.074;2023-01-31T01:29:26;96430.09;;;1.26;76.62
34205;BME280;20471;49.680;20.074;2023-01-31T01:31:54;96427.91;;;1.24;76.77
34205;BME280;20471;49.680;20.074;2023-01-31T01:34:22;96424.84;;;1.21;77.07
34205;BME280;20471;49.680;20.074;2023-01-31T01:36:51;96426.88;;;1.18;77.17
34205;BME280;20471;49.680;20.074;2023-01-31T01:39:19;96427.78;;;1.16;77.27
34205;BME280;20471;49.680;20.074;2023-01-31T01:41:47;96424.77;;;1.13;77.51
34205;BME280;20471;49.680;20.074;2023-01-31T01:44:43;96435.06;;;1.11;77.63
34205;BME280;20471;49.680;20.074;2023-01-31T01:52:49;96444.29;;;1.06;77.53
34205;BME280;20471;49.680;20.074;2023-01-31T01:55:23;96446.71;;;1.05;77.50
34205;BME280;20471;49.680;20.074;2023-01-31T01:58:01;96449.25;;;1.04;77.49
34205;BME280;20471;49.680;20.074;2023-01-31T02:00:32;96453.39;;;1.07;77.65
34205;BME280;20471;49.680;20.074;2023-01-31T02:03:05;96456.16;;;1.09;77.59
34205;BME280;20471;49.680;20.074;2023-01-31T02:05:53;96458.83;;;1.12;77.52
34205;BME280;20471;49.680;20.074;2023-01-31T02:08:24;96454.63;;;1.14;77.43
34205;BME280;20471;49.680;20.074;2023-01-31T02:11:23;96457.48;;;1.16;77.38
34205;BME280;20471;49.680;20.074;2023-01-31T02:14:04;96461.88;;;1.20;77.53
34205;BME280;20471;49.680;20.074;2023-01-31T02:16:34;96455.60;;;1.20;77.57
34205;BME280;20471;49.680;20.074;2023-01-31T02:19:04;96457.86;;;1.21;77.59
34205;BME280;20471;49.680;20.074;2023-01-31T02:41:09;96492.02;;;1.07;78.11
34205;BME280;20471;49.680;20.074;2023-01-31T02:44:18;96492.00;;;1.04;78.18
34205;BME280;20471;49.680;20.074;2023-01-31T02:47:26;96500.00;;;1.05;78.15
34205;BME280;20471;49.680;20.074;2023-01-31T02:52:47;96521.09;;;1.08;77.97
34205;BME280;20471;49.680;20.074;2023-01-31T02:55:27;96520.35;;;1.10;77.94
34205;BME280;20471;49.680;20.074;2023-01-31T02:58:16;96524.15;;;1.09;77.92
34205;BME280;20471;49.680;20.074;2023-01-31T03:00:46;96529.05;;;1.08;77.95
34205;BME280;20471;49.680;20.074;2023-01-31T03:03:22;96533.48;;;1.07;77.94
34205;BME280;20471;49.680;20.074;2023-01-31T03:09:01;96538.98;;;1.05;77.99
34205;BME280;20471;49.680;20.074;2023-01-31T03:12:04;96546.02;;;1.06;78.07
34205;BME280;20471;49.680;20.074;2023-01-31T03:22:36;96558.39;;;1.09;77.74
34205;BME280;20471;49.680;20.074;2023-01-31T03:25:08;96561.16;;;1.09;77.63
34205;BME280;20471;49.680;20.074;2023-01-31T03:27:39;96562.15;;;1.11;77.56
34205;BME280;20471;49.680;20.074;2023-01-31T03:30:16;96560.42;;;1.12;77.37
34205;BME280;20471;49.680;20.074;2023-01-31T03:32:59;96556.27;;;1.14;77.29
34205;BME280;20471;49.680;20.074;2023-01-31T03:35:30;96551.64;;;1.14;77.04
34205;BME280;20471;49.680;20.074;2023-01-31T03:38:24;96561.02;;;1.15;76.99
34205;BME280;20471;49.680;20.074;2023-01-31T03:41:02;96570.66;;;1.14;76.78
34205;BME280;20471;49.680;20.074;2023-01-31T03:43:47;96572.64;;;1.15;76.93
34205;BME280;20471;49.680;20.074;2023-01-31T03:46:21;96572.84;;;1.17;76.82
34205;BME280;20471;49.680;20.074;2023-01-31T03:48:52;96571.05;;;1.17;76.64
34205;BME280;20471;49.680;20.074;2023-01-31T03:51:26;96575.42;;;1.17;76.65
34205;BME280;20471;49.680;20.074;2023-01-31T03:54:02;96581.52;;;1.18;76.47
34205;BME280;20471;49.680;20.074;2023-01-31T03:56:40;96585.17;;;1.17;76.59
34205;BME280;20471;49.680;20.074;2023-01-31T03:59:16;96585.52;;;1.17;76.68
34205;BME280;20471;49.680;20.074;2023-01-31T04:01:48;96589.98;;;1.17;76.52
34205;BME280;20471;49.680;20.074;2023-01-31T04:04:25;96594.44;;;1.18;76.47
34205;BME280;20471;49.680;20.074;2023-01-31T04:06:55;96597.23;;;1.15;76.57
34205;BME280;20471;49.680;20.074;2023-01-31T04:09:23;96603.29;;;1.12;76.44
34205;BME280;20471;49.680;20.074;2023-01-31T04:11:51;96603.59;;;1.13;76.45
34205;BME280;20471;49.680;20.074;2023-01-31T04:14:19;96606.88;;;1.13;76.40
34205;BME280;20471;49.680;20.074;2023-01-31T04:16:47;96616.77;;;1.12;76.48
34205;BME280;20471;49.680;20.074;2023-01-31T04:19:16;96617.79;;;1.09;76.53
34205;BME280;20471;49.680;20.074;2023-01-31T04:21:44;96624.02;;;1.07;76.62
34205;BME280;20471;49.680;20.074;2023-01-31T04:24:12;96629.77;;;1.09;76.95
34205;BME280;20471;49.680;20.074;2023-01-31T04:26:40;96634.55;;;1.11;76.94
34205;BME280;20471;49.680;20.074;2023-01-31T04:29:08;96638.85;;;1.09;77.05
34205;BME280;20471;49.680;20.074;2023-01-31T04:31:36;96635.23;;;1.00;77.11
34205;BME280;20471;49.680;20.074;2023-01-31T04:34:05;96631.37;;;0.94;77.35
34205;BME280;20471;49.680;20.074;2023-01-31T04:36:33;96626.65;;;0.91;77.45
34205;BME280;20471;49.680;20.074;2023-01-31T04:39:01;96624.89;;;0.88;77.71
34205;BME280;20471;49.680;20.074;2023-01-31T04:41:29;96635.05;;;0.88;77.77
34205;BME280;20471;49.680;20.074;2023-01-31T04:43:57;96640.98;;;0.85;77.72
34205;BME280;20471;49.680;20.074;2023-01-31T04:46:25;96640.43;;;0.82;77.80
34205;BME280;20471;49.680;20.074;2023-01-31T04:48:53;96644.19;;;0.82;77.98
34205;BME280;20471;49.680;20.074;2023-01-31T04:51:21;96651.83;;;0.80;78.08
34205;BME280;20471;49.680;20.074;2023-01-31T04:53:49;96663.88;;;0.80;78.13
34205;BME280;20471;49.680;20.074;2023-01-31T04:56:17;96672.08;;;0.80;78.21
34205;BME280;20471;49.680;20.074;2023-01-31T04:58:45;96677.09;;;0.74;78.39
34205;BME280;20471;49.680;20.074;2023-01-31T05:01:14;96687.60;;;0.59;78.29
34205;BME280;20471;49.680;20.074;2023-01-31T05:03:42;96685.05;;;0.49;78.44
34205;BME280;20471;49.680;20.074;2023-01-31T05:06:10;96687.27;;;0.36;78.32
34205;BME280;20471;49.680;20.074;2023-01-31T05:08:38;96693.06;;;0.22;78.39
34205;BME280;20471;49.680;20.074;2023-01-31T05:11:06;96691.66;;;0.10;78.41
34205;BME280;20471;49.680;20.074;2023-01-31T05:13:35;96702.66;;;0.07;79.29
34205;BME280;20471;49.680;20.074;2023-01-31T05:16:08;96711.02;;;0.07;79.34
34205;BME280;20471;49.680;20.074;2023-01-31T05:18:37;96711.27;;;0.11;79.36
34205;BME280;20471;49.680;20.074;2023-01-31T05:21:06;96711.95;;;0.13;79.50
34205;BME280;20471;49.680;20.074;2023-01-31T05:23:34;96709.60;;;0.15;79.59
34205;BME280;20471;49.680;20.074;2023-01-31T05:26:03;96707.39;;;0.19;79.53
34205;BME280;20471;49.680;20.074;2023-01-31T05:28:31;96708.52;;;0.23;79.55
34205;BME280;20471;49.680;20.074;2023-01-31T05:31:04;96712.08;;;0.28;79.66
34205;BME280;20471;49.680;20.074;2023-01-31T05:33:33;96720.73;;;0.33;79.53
34205;BME280;20471;49.680;20.074;2023-01-31T05:36:02;96725.41;;;0.35;79.53
34205;BME280;20471;49.680;20.074;2023-01-31T05:38:30;96728.01;;;0.38;79.66
34205;BME280;20471;49.680;20.074;2023-01-31T05:40:58;96732.93;;;0.40;79.71
34205;BME280;20471;49.680;20.074;2023-01-31T05:43:26;96736.23;;;0.41;79.59
34205;BME280;20471;49.680;20.074;2023-01-31T05:45:54;96740.47;;;0.39;79.66
34205;BME280;20471;49.680;20.074;2023-01-31T05:48:22;96746.09;;;0.38;79.82
34205;BME280;20471;49.680;20.074;2023-01-31T05:50:50;96750.73;;;0.37;79.67
34205;BME280;20471;49.680;20.074;2023-01-31T05:53:18;96764.23;;;0.39;79.83
34205;BME280;20471;49.680;20.074;2023-01-31T05:55:48;96762.96;;;0.37;79.87
34205;BME280;20471;49.680;20.074;2023-01-31T05:58:16;96769.83;;;0.37;79.80
34205;BME280;20471;49.680;20.074;2023-01-31T06:00:44;96774.70;;;0.38;79.71
34205;BME280;20471;49.680;20.074;2023-01-31T06:03:12;96770.95;;;0.37;79.73
34205;BME280;20471;49.680;20.074;2023-01-31T06:05:40;96776.38;;;0.34;79.79
34205;BME280;20471;49.680;20.074;2023-01-31T06:08:08;96779.50;;;0.34;79.77
34205;BME280;20471;49.680;20.074;2023-01-31T06:10:37;96779.23;;;0.34;79.75
34205;BME280;20471;49.680;20.074;2023-01-31T06:13:05;96782.45;;;0.35;79.73
34205;BME280;20471;49.680;20.074;2023-01-31T06:15:33;96781.39;;;0.35;79.79
34205;BME280;20471;49.680;20.074;2023-01-31T06:18:03;96783.45;;;0.35;79.66
34205;BME280;20471;49.680;20.074;2023-01-31T06:20:31;96785.20;;;0.38;79.70
34205;BME280;20471;49.680;20.074;2023-01-31T06:22:59;96788.48;;;0.38;79.69
34205;BME280;20471;49.680;20.074;2023-01-31T06:25:27;96787.95;;;0.33;79.53
34205;BME280;20471;49.680;20.074;2023-01-31T06:27:56;96788.56;;;0.27;79.65
34205;BME280;20471;49.680;20.074;2023-01-31T06:30:24;96792.98;;;0.23;79.55
34205;BME280;20471;49.680;20.074;2023-01-31T06:32:52;96794.80;;;0.22;79.77
34205;BME280;20471;49.680;20.074;2023-01-31T06:35:20;96799.95;;;0.22;79.74
34205;BME280;20471;49.680;20.074;2023-01-31T06:37:48;96814.82;;;0.22;79.70
34205;BME280;20471;49.680;20.074;2023-01-31T06:40:16;96816.40;;;0.22;79.65
34205;BME280;20471;49.680;20.074;2023-01-31T06:42:45;96817.98;;;0.19;79.60
34205;BME280;20471;49.680;20.074;2023-01-31T06:45:13;96822.48;;;0.18;79.52
34205;BME280;20471;49.680;20.074;2023-01-31T06:47:43;96830.42;;;0.20;79.62
34205;BME280;20471;49.680;20.074;2023-01-31T06:50:12;96837.38;;;0.23;79.55
34205;BME280;20471;49.680;20.074;2023-01-31T06:52:40;96843.73;;;0.24;79.43
34205;BME280;20471;49.680;20.074;2023-01-31T06:55:09;96847.13;;;0.26;79.38
34205;BME280;20471;49.680;20.074;2023-01-31T06:57:48;96851.31;;;0.23;79.37
34205;BME280;20471;49.680;20.074;2023-01-31T07:00:16;96860.46;;;0.25;79.28
34205;BME280;20471;49.680;20.074;2023-01-31T07:02:46;96864.02;;;0.27;79.07
34205;BME280;20471;49.680;20.074;2023-01-31T07:05:15;96867.17;;;0.27;78.99
34205;BME280;20471;49.680;20.074;2023-01-31T07:07:43;96864.92;;;0.30;78.92
34205;BME280;20471;49.680;20.074;2023-01-31T07:10:12;96867.27;;;0.34;78.65
34205;BME280;20471;49.680;20.074;2023-01-31T07:12:40;96871.81;;;0.39;78.57
34205;BME280;20471;49.680;20.074;2023-01-31T07:15:09;96877.81;;;0.41;78.48
34205;BME280;20471;49.680;20.074;2023-01-31T07:17:38;96885.10;;;0.40;78.43
34205;BME280;20471;49.680;20.074;2023-01-31T07:20:07;96888.67;;;0.38;78.26
34205;BME280;20471;49.680;20.074;2023-01-31T07:22:35;96894.59;;;0.39;78.24
34205;BME280;20471;49.680;20.074;2023-01-31T07:25:04;96899.45;;;0.42;78.16
34205;BME280;20471;49.680;20.074;2023-01-31T07:27:32;96902.54;;;0.43;77.99
34205;BME280;20471;49.680;20.074;2023-01-31T07:30:00;96904.03;;;0.42;77.94
34205;BME280;20471;49.680;20.074;2023-01-31T07:32:29;96909.70;;;0.46;77.98
34205;BME280;20471;49.680;20.074;2023-01-31T07:34:57;96913.69;;;0.48;77.87
34205;BME280;20471;49.680;20.074;2023-01-31T07:37:25;96917.23;;;0.50;77.99
34205;BME280;20471;49.680;20.074;2023-01-31T07:39:53;96917.96;;;0.51;77.86
34205;BME280;20471;49.680;20.074;2023-01-31T07:42:21;96919.13;;;0.49;77.72
34205;BME280;20471;49.680;20.074;2023-01-31T07:44:49;96925.76;;;0.49;77.82
34205;BME280;20471;49.680;20.074;2023-01-31T07:47:18;96931.30;;;0.52;77.74
34205;BME280;20471;49.680;20.074;2023-01-31T07:49:46;96932.97;;;0.56;77.89
34205;BME280;20471;49.680;20.074;2023-01-31T07:52:16;96937.24;;;0.64;77.84
34205;BME280;20471;49.680;20.074;2023-01-31T07:54:44;96935.45;;;0.66;77.75
34205;BME280;20471;49.680;20.074;2023-01-31T07:57:12;96936.28;;;0.65;77.55
34205;BME280;20471;49.680;20.074;2023-01-31T07:59:43;96935.38;;;0.62;77.34
34205;BME280;20471;49.680;20.074;2023-01-31T08:02:13;96938.38;;;0.62;77.23
34205;BME280;20471;49.680;20.074;2023-01-31T08:04:58;96938.65;;;0.61;77.22
34205;BME280;20471;49.680;20.074;2023-01-31T08:07:27;96936.16;;;0.63;77.26
34205;BME280;20471;49.680;20.074;2023-01-31T08:09:56;96932.23;;;0.65;77.18
34205;BME280;20471;49.680;20.074;2023-01-31T08:12:24;96930.11;;;0.67;77.09
34205;BME280;20471;49.680;20.074;2023-01-31T08:14:52;96933.70;;;0.69;77.07
34205;BME280;20471;49.680;20.074;2023-01-31T08:17:20;96939.39;;;0.72;77.02
34205;BME280;20471;49.680;20.074;2023-01-31T08:19:48;96944.73;;;0.74;76.76
34205;BME280;20471;49.680;20.074;2023-01-31T08:22:16;96947.23;;;0.75;76.71
34205;BME280;20471;49.680;20.074;2023-01-31T08:24:45;96951.30;;;0.77;76.61
34205;BME280;20471;49.680;20.074;2023-01-31T08:27:13;96952.39;;;0.77;76.57
34205;BME280;20471;49.680;20.074;2023-01-31T08:29:41;96953.98;;;0.77;76.44
34205;BME280;20471;49.680;20.074;2023-01-31T08:32:09;96954.80;;;0.72;76.21
34205;BME280;20471;49.680;20.074;2023-01-31T08:34:37;96954.90;;;0.68;76.24
34205;BME280;20471;49.680;20.074;2023-01-31T08:37:05;96956.26;;;0.69;76.22
34205;BME280;20471;49.680;20.074;2023-01-31T08:39:34;96963.10;;;0.71;76.08
34205;BME280;20471;49.680;20.074;2023-01-31T08:42:02;96963.61;;;0.76;76.05
34205;BME280;20471;49.680;20.074;2023-01-31T08:44:30;96969.61;;;0.80;76.01
34205;BME280;20471;49.680;20.074;2023-01-31T08:46:58;96973.38;;;0.83;75.95
34205;BME280;20471;49.680;20.074;2023-01-31T08:49:27;96979.89;;;0.83;75.86
34205;BME280;20471;49.680;20.074;2023-01-31T08:51:55;96985.73;;;0.83;75.75
34205;BME280;20471;49.680;20.074;2023-01-31T08:54:23;96987.33;;;0.82;75.69
34205;BME280;20471;49.680;20.074;2023-01-31T08:56:51;96994.23;;;0.82;75.72
34205;BME280;20471;49.680;20.074;2023-01-31T08:59:20;96999.15;;;0.84;75.72
34205;BME280;20471;49.680;20.074;2023-01-31T09:01:48;97000.59;;;0.87;75.75
34205;BME280;20471;49.680;20.074;2023-01-31T09:04:16;97001.46;;;0.90;75.55
34205;BME280;20471;49.680;20.074;2023-01-31T09:06:44;97001.58;;;0.96;75.45
34205;BME280;20471;49.680;20.074;2023-01-31T09:09:12;97006.66;;;1.00;75.35
34205;BME280;20471;49.680;20.074;2023-01-31T09:11:41;97008.09;;;0.99;75.14
34205;BME280;20471;49.680;20.074;2023-01-31T09:14:09;97010.66;;;1.00;75.23
34205;BME280;20471;49.680;20.074;2023-01-31T09:16:37;97005.91;;;1.01;75.22
34205;BME280;20471;49.680;20.074;2023-01-31T09:19:05;97005.13;;;1.02;75.06
34205;BME280;20471;49.680;20.074;2023-01-31T09:21:33;97004.45;;;1.04;75.17
34205;BME280;20471;49.680;20.074;2023-01-31T09:24:02;97003.21;;;1.05;75.08
34205;BME280;20471;49.680;20.074;2023-01-31T09:26:30;97006.42;;;1.10;74.93
34205;BME280;20471;49.680;20.074;2023-01-31T09:28:58;97010.23;;;1.13;74.95
34205;BME280;20471;49.680;20.074;2023-01-31T09:31:27;97010.73;;;1.13;74.76
34205;BME280;20471;49.680;20.074;2023-01-31T09:33:56;97009.67;;;1.15;74.80
34205;BME280;20471;49.680;20.074;2023-01-31T09:36:25;97010.08;;;1.19;74.63
34205;BME280;20471;49.680;20.074;2023-01-31T09:38:54;97003.75;;;1.26;74.66
34205;BME280;20471;49.680;20.074;2023-01-31T09:41:31;96994.73;;;1.29;74.52
34205;BME280;20471;49.680;20.074;2023-01-31T09:44:18;96991.01;;;1.32;74.32
34205;BME280;20471;49.680;20.074;2023-01-31T09:47:13;96990.70;;;1.35;74.36
34205;BME280;20471;49.680;20.074;2023-01-31T09:49:51;96986.52;;;1.37;74.19
34205;BME280;20471;49.680;20.074;2023-01-31T09:52:21;96989.14;;;1.39;74.08
34205;BME280;20471;49.680;20.074;2023-01-31T09:54:49;96989.33;;;1.42;74.03
34205;BME280;20471;49.680;20.074;2023-01-31T10:06:05;96991.96;;;1.56;73.69
34205;BME280;20471;49.680;20.074;2023-01-31T10:11:14;96993.16;;;1.64;73.63
34205;BME280;20471;49.680;20.074;2023-01-31T10:13:53;96995.85;;;1.62;73.59
34205;BME280;20471;49.680;20.074;2023-01-31T10:16:34;96993.61;;;1.57;73.57
34205;BME280;20471;49.680;20.074;2023-01-31T10:19:16;96994.09;;;1.53;73.63
34205;BME280;20471;49.680;20.074;2023-01-31T10:21:51;96996.38;;;1.56;73.75
34205;BME280;20471;49.680;20.074;2023-01-31T10:24:31;96998.11;;;1.63;73.80
34205;BME280;20471;49.680;20.074;2023-01-31T10:27:06;97000.73;;;1.67;73.75
34205;BME280;20471;49.680;20.074;2023-01-31T10:29:49;97007.59;;;1.65;73.62
34205;BME280;20471;49.680;20.074;2023-01-31T10:32:29;97012.17;;;1.62;73.62
34205;BME280;20471;49.680;20.074;2023-01-31T10:35:13;97011.19;;;1.65;73.55
34205;BME280;20471;49.680;20.074;2023-01-31T10:37:49;97012.77;;;1.67;73.49
34205;BME280;20471;49.680;20.074;2023-01-31T10:40:27;97014.04;;;1.70;73.40
34205;BME280;20471;49.680;20.074;2023-01-31T10:45:48;97021.59;;;1.74;73.16
34205;BME280;20471;49.680;20.074;2023-01-31T10:48:21;97024.30;;;1.76;73.20
34205;BME280;20471;49.680;20.074;2023-01-31T10:51:12;97027.46;;;1.77;72.99
34205;BME280;20471;49.680;20.074;2023-01-31T10:56:47;97025.72;;;1.73;72.77
34205;BME280;20471;49.680;20.074;2023-01-31T10:59:18;97021.70;;;1.73;72.87
34205;BME280;20471;49.680;20.074;2023-01-31T11:01:50;97025.15;;;1.75;72.72
34205;BME280;20471;49.680;20.074;2023-01-31T11:04:29;97029.59;;;1.77;72.64
34205;BME280;20471;49.680;20.074;2023-01-31T11:07:00;97028.79;;;1.74;72.29
34205;BME280;20471;49.680;20.074;2023-01-31T11:09:32;97024.49;;;1.68;72.33
34205;BME280;20471;49.680;20.074;2023-01-31T11:12:03;97027.28;;;1.64;72.36
34205;BME280;20471;49.680;20.074;2023-01-31T11:14:32;97026.79;;;1.63;72.36
34205;BME280;20471;49.680;20.074;2023-01-31T11:19:44;97021.36;;;1.72;72.30
34205;BME280;20471;49.680;20.074;2023-01-31T11:22:25;97021.33;;;1.74;72.16
34205;BME280;20471;49.680;20.074;2023-01-31T11:25:00;97021.10;;;1.75;71.89
34205;BME280;20471;49.680;20.074;2023-01-31T11:27:38;97017.54;;;1.75;71.55
34205;BME280;20471;49.680;20.074;2023-01-31T11:30:20;97016.52;;;1.78;71.39
34205;BME280;20471;49.680;20.074;2023-01-31T11:32:49;97016.44;;;1.82;71.29
34205;BME280;20471;49.680;20.074;2023-01-31T11:40:39;97007.09;;;1.95;70.64
34205;BME280;20471;49.680;20.074;2023-01-31T11:45:46;97010.87;;;2.16;70.50
34205;BME280;20471;49.680;20.074;2023-01-31T11:48:28;97007.21;;;2.33;70.29
34205;BME280;20471;49.680;20.074;2023-01-31T11:51:00;97003.71;;;2.33;69.65
34205;BME280;20471;49.680;20.074;2023-01-31T11:53:36;97002.98;;;2.30;69.38
34205;BME280;20471;49.680;20.074;2023-01-31T11:56:27;97009.45;;;2.29;69.25
34205;BME280;20471;49.680;20.074;2023-01-31T11:59:00;97007.80;;;2.23;69.11
34205;BME280;20471;49.680;20.074;2023-01-31T12:01:32;97006.84;;;2.14;68.89
34205;BME280;20471;49.680;20.074;2023-01-31T12:04:03;97008.79;;;2.05;68.86
34205;BME280;20471;49.680;20.074;2023-01-31T12:06:34;97007.79;;;1.98;68.70
34205;BME280;20471;49.680;20.074;2023-01-31T12:09:17;97007.64;;;1.93;68.67
34205;BME280;20471;49.680;20.074;2023-01-31T12:12:33;97006.61;;;1.93;68.70
34205;BME280;20471;49.680;20.074;2023-01-31T12:15:04;97013.34;;;1.94;68.66
34205;BME280;20471;49.680;20.074;2023-01-31T12:17:48;97005.34;;;1.93;68.71
34205;BME280;20471;49.680;20.074;2023-01-31T12:20:41;97002.60;;;1.93;68.59
34205;BME280;20471;49.680;20.074;2023-01-31T12:26:25;96999.36;;;2.10;68.72
34205;BME280;20471;49.680;20.074;2023-01-31T12:37:41;96988.80;;;2.47;67.96
34205;BME280;20471;49.680;20.074;2023-01-31T12:40:49;96986.47;;;2.55;67.63
34205;BME280;20471;49.680;20.074;2023-01-31T12:51:35;96984.64;;;2.47;66.83
34205;BME280;20471;49.680;20.074;2023-01-31T12:59:50;96992.98;;;2.37;66.47
34205;BME280;20471;49.680;20.074;2023-01-31T13:07:55;96999.02;;;2.19;66.22
34205;BME280;20471;49.680;20.074;2023-01-31T13:10:38;96997.96;;;2.11;66.12
34205;BME280;20471;49.680;20.074;2023-01-31T13:13:16;96992.87;;;2.06;66.26
34205;BME280;20471;49.680;20.074;2023-01-31T13:15:51;96990.44;;;2.10;66.38
34205;BME280;20471;49.680;20.074;2023-01-31T13:18:22;96989.44;;;2.06;66.40
34205;BME280;20471;49.680;20.074;2023-01-31T13:20:56;96986.83;;;2.03;66.45
34205;BME280;20471;49.680;20.074;2023-01-31T13:23:30;96984.07;;;2.04;66.48
34205;BME280;20471;49.680;20.074;2023-01-31T13:26:24;96982.56;;;2.08;66.57
34205;BME280;20471;49.680;20.074;2023-01-31T13:29:15;96979.27;;;2.13;66.53
34205;BME280;20471;49.680;20.074;2023-01-31T13:31:50;96977.34;;;2.18;66.47
34205;BME280;20471;49.680;20.074;2023-01-31T13:34:47;96980.06;;;2.22;66.59
34205;BME280;20471;49.680;20.074;2023-01-31T13:37:17;96982.72;;;2.20;66.40
34205;BME280;20471;49.680;20.074;2023-01-31T13:39:54;96978.69;;;2.15;66.46
34205;BME280;20471;49.680;20.074;2023-01-31T13:42:24;96980.48;;;2.10;66.53
34205;BME280;20471;49.680;20.074;2023-01-31T13:44:53;96978.66;;;2.06;66.74
34205;BME280;20471;49.680;20.074;2023-01-31T13:47:27;96974.62;;;2.03;66.92
34205;BME280;20471;49.680;20.074;2023-01-31T13:52:52;96977.46;;;1.94;67.09
34205;BME280;20471;49.680;20.074;2023-01-31T13:55:51;96974.15;;;1.96;67.14
34205;BME280;20471;49.680;20.074;2023-01-31T13:58:21;96968.73;;;2.04;67.34
34205;BME280;20471;49.680;20.074;2023-01-31T14:01:00;96960.27;;;2.18;67.41
34205;BME280;20471;49.680;20.074;2023-01-31T14:03:29;96958.63;;;2.29;67.13
34205;BME280;20471;49.680;20.074;2023-01-31T14:05:59;96961.64;;;2.28;66.99
34205;BME280;20471;49.680;20.074;2023-01-31T14:14:17;96959.75;;;2.29;66.85
34205;BME280;20471;49.680;20.074;2023-01-31T14:16:46;96964.84;;;2.28;66.82
34205;BME280;20471;49.680;20.074;2023-01-31T14:47:06;96950.62;;;1.70;67.31
34205;BME280;20471;49.680;20.074;2023-01-31T14:50:00;96946.98;;;1.65;67.54
34205;BME280;20471;49.680;20.074;2023-01-31T14:52:44;96950.23;;;1.58;67.61
34205;BME280;20471;49.680;20.074;2023-01-31T14:55:41;96950.77;;;1.50;67.81
34205;BME280;20471;49.680;20.074;2023-01-31T14:58:19;96951.67;;;1.43;67.92
34205;BME280;20471;49.680;20.074;2023-01-31T15:00:55;96939.98;;;1.38;68.14
34205;BME280;20471;49.680;20.074;2023-01-31T15:03:27;96934.55;;;1.37;68.13
34205;BME280;20471;49.680;20.074;2023-01-31T15:06:09;96939.65;;;1.39;68.29
34205;BME280;20471;49.680;20.074;2023-01-31T15:08:43;96944.48;;;1.42;68.32
34205;BME280;20471;49.680;20.074;2023-01-31T15:11:53;96941.09;;;1.43;68.41
34205;BME280;20471;49.680;20.074;2023-01-31T15:17:21;96938.79;;;1.41;68.30
34205;BME280;20471;49.680;20.074;2023-01-31T15:19:51;96934.55;;;1.37;68.25
34205;BME280;20471;49.680;20.074;2023-01-31T15:22:20;96932.79;;;1.36;68.47
34205;BME280;20471;49.680;20.074;2023-01-31T15:24:55;96925.91;;;1.37;68.50
34205;BME280;20471;49.680;20.074;2023-01-31T15:27:29;96927.91;;;1.36;68.52
34205;BME280;20471;49.680;20.074;2023-01-31T15:30:25;96926.58;;;1.37;68.50
34205;BME280;20471;49.680;20.074;2023-01-31T15:33:04;96930.84;;;1.39;68.62
34205;BME280;20471;49.680;20.074;2023-01-31T15:43:55;96920.39;;;1.28;68.96
34205;BME280;20471;49.680;20.074;2023-01-31T15:48:55;96916.98;;;1.30;69.05
34205;BME280;20471;49.680;20.074;2023-01-31T15:51:23;96908.94;;;1.29;69.08
34205;BME280;20471;49.680;20.074;2023-01-31T15:54:04;96909.16;;;1.27;69.08
34205;BME280;20471;49.680;20.074;2023-01-31T15:56:38;96908.26;;;1.26;69.23